الصفحة الرئيسية
METAR-TAF:

METAR-TAF

مطار :

مومباي, الهند

دائرة عرض: 19-05-53N, خط طول: 072-50-02E, ارتفاع: 4 متر

مراقبة الطقس الحالي

تاريخ ووقت الإصدار 8ساعات و 49 دقيقة قبل الساعة 12:30UTC
ريح 8 عقدة من الغرب/الجنوب الغربي
درجة الحرارة 27°درجة مئوية
الرطوبة 94%
ضغط 1002 hPa
الرؤية: 2500 متر
غيوم قليلة على ارتفاع 1800 قدم
غيوم متفرقة على ارتفاع 2500 قدم
غيوم قليلة على ارتفاع 3000 قدم, مزن ركامية عمودية.
غيوم مفككة على ارتفاع 9000 قدم
العجاج

METAR: VAJJ 251230Z 25008KT 2500 HZ FEW018 SCT025 FEW030TCU BKN090 27/26 Q1002 NOSIG

زمن: 02:49 (21:19 UTC)


TAF: مفقودة

أرصاد الطقس والتوقعات من أكثر من 4000 مطار (تقارير الطقس للمطار METAR والتنبؤ بالطقس بالمطارTAF).

المحطات المتاحة هي النقط الصفراء والحمراء على الخريطة.

حرك المؤشر فوق النقطة لمعرفة اسم المحطة.

ثم انقر لمعرفة أرصاد وتوقعات الطقس.

لتغيير الخارطة: اضغط على الأزرار الخضراء مع رمز الصليب الأسود للتكبير. على الزر الأخضر مع شرطة للتصغير، أو على الأسهم الخضراء للخرائط المجاورة.


METAR-TAF: